Time;durP1;ratioP1;P1;durP2;ratioP2;P2;SDS_P1;SDS_P2;PMS_P1;PMS_P2;Temp;Humidity;BMP_temperature;BMP_pressure;BME280_temperature;BME280_humidity;BME280_pressure;Samples;Min_cycle;Max_cycle;Signal;HPM_P1;HPM_P2
2023/09/14 00:00:32;;;;;;;0.95;0.95;;;11.30;99.90;;;;;;4983789;28;20771;-86
2023/09/14 00:02:58;;;;;;;0.93;0.93;;;11.30;99.90;;;;;;4973295;28;20048;-87
2023/09/14 00:05:24;;;;;;;1.08;1.08;;;11.40;99.90;;;;;;4966568;28;20070;-87
2023/09/14 00:07:50;;;;;;;1.10;1.10;;;11.30;99.90;;;;;;4984269;28;20076;-87
2023/09/14 00:10:15;;;;;;;1.10;1.10;;;11.30;99.90;;;;;;4982858;28;20084;-86
2023/09/14 00:12:41;;;;;;;1.10;1.10;;;11.30;99.90;;;;;;4970781;28;20046;-86
2023/09/14 00:15:07;;;;;;;1.10;1.10;;;11.40;99.90;;;;;;4983436;28;20042;-86
2023/09/14 00:17:33;;;;;;;1.08;1.08;;;11.30;99.90;;;;;;4968636;28;20052;-87
2023/09/14 00:20:00;;;;;;;1.17;1.17;;;11.30;99.90;;;;;;4972144;28;20068;-87
2023/09/14 00:22:26;;;;;;;1.10;1.10;;;11.10;99.90;;;;;;4965297;28;20125;-86
2023/09/14 00:24:52;;;;;;;1.20;1.20;;;11.20;99.90;;;;;;4977125;28;20413;-86
2023/09/14 00:27:18;;;;;;;1.30;1.30;;;11.10;99.90;;;;;;4966527;28;20060;-86
2023/09/14 00:29:46;;;;;;;1.30;1.30;;;11.20;99.90;;;;;;4983152;28;20054;-86
2023/09/14 00:32:12;;;;;;;1.20;1.20;;;11.20;99.90;;;;;;4969256;28;20050;-86
2023/09/14 00:34:37;;;;;;;1.30;1.30;;;11.20;99.90;;;;;;4982992;28;20034;-87
2023/09/14 00:37:04;;;;;;;1.30;1.30;;;11.10;99.90;;;;;;4979716;28;20042;-86
2023/09/14 00:39:30;;;;;;;1.30;1.30;;;11.20;99.90;;;;;;4967714;28;20103;-86
2023/09/14 00:41:56;;;;;;;1.42;1.38;;;11.20;99.90;;;;;;4967554;28;20058;-86
2023/09/14 00:44:21;;;;;;;1.45;1.40;;;11.10;99.90;;;;;;4969801;28;20049;-86
2023/09/14 00:46:47;;;;;;;1.30;1.30;;;11.20;99.90;;;;;;4982454;28;20049;-86
2023/09/14 00:49:14;;;;;;;1.30;1.30;;;11.10;99.90;;;;;;4983711;28;20045;-86
2023/09/14 00:51:40;;;;;;;1.30;1.30;;;11.00;99.90;;;;;;4982728;28;20046;-85
2023/09/14 00:54:06;;;;;;;1.10;1.10;;;11.00;99.90;;;;;;4984817;28;20131;-85
2023/09/14 00:56:32;;;;;;;1.00;1.00;;;10.80;99.90;;;;;;4964333;28;20041;-86
2023/09/14 00:58:58;;;;;;;1.10;1.10;;;10.80;99.90;;;;;;4966394;28;20066;-85
2023/09/14 01:01:24;;;;;;;1.35;1.33;;;10.80;99.90;;;;;;4984564;28;20104;-86
2023/09/14 01:03:50;;;;;;;1.50;1.40;;;11.00;99.90;;;;;;4987155;28;20072;-85
2023/09/14 01:06:16;;;;;;;1.50;1.40;;;11.00;99.90;;;;;;4987024;28;20060;-84
2023/09/14 01:08:42;;;;;;;1.40;1.38;;;10.90;99.90;;;;;;4987291;28;20065;-85
2023/09/14 01:11:08;;;;;;;1.50;1.40;;;11.00;99.90;;;;;;4989194;28;20095;-83
2023/09/14 01:14:15;;;;;;;1.38;1.38;;;10.90;99.90;;;;;;4989607;28;20046;-85
2023/09/14 01:17:12;;;;;;;1.23;1.23;;;10.90;99.90;;;;;;4979700;28;20479;-85
2023/09/14 01:19:55;;;;;;;1.50;1.40;;;10.90;99.90;;;;;;4958985;28;20064;-85
2023/09/14 01:22:41;;;;;;;1.50;1.40;;;10.90;99.90;;;;;;4970633;28;20045;-84
2023/09/14 01:25:32;;;;;;;1.42;1.33;;;10.90;99.90;;;;;;4983594;28;20149;-85
2023/09/14 01:28:08;;;;;;;1.50;1.40;;;10.90;99.90;;;;;;4986734;28;20080;-84
2023/09/14 01:30:34;;;;;;;1.33;1.33;;;10.90;99.90;;;;;;4969832;28;20122;-84
2023/09/14 01:33:00;;;;;;;1.50;1.40;;;10.80;99.90;;;;;;4986956;28;20125;-84
2023/09/14 01:35:32;;;;;;;1.20;1.20;;;10.70;99.90;;;;;;4974719;28;20149;-84
2023/09/14 01:37:58;;;;;;;1.10;1.10;;;10.70;99.90;;;;;;4991046;28;20057;-84
2023/09/14 01:40:26;;;;;;;1.05;1.05;;;10.50;99.90;;;;;;4970182;28;20153;-84
2023/09/14 01:42:53;;;;;;;1.30;1.30;;;10.60;99.90;;;;;;4972511;28;20052;-84
2023/09/14 01:45:19;;;;;;;1.30;1.30;;;10.70;99.90;;;;;;4985780;28;20108;-84
2023/09/14 01:47:46;;;;;;;1.20;1.20;;;10.60;99.90;;;;;;4992083;28;20049;-83
2023/09/14 01:50:12;;;;;;;1.10;1.10;;;10.60;99.90;;;;;;4989903;28;20176;-84
2023/09/14 01:52:38;;;;;;;1.13;1.13;;;10.50;99.90;;;;;;4985455;28;20046;-84
2023/09/14 01:55:04;;;;;;;1.20;1.20;;;10.50;99.90;;;;;;4988874;28;20530;-83
2023/09/14 01:57:30;;;;;;;1.17;1.17;;;10.50;99.90;;;;;;4985088;28;20508;-84
2023/09/14 01:59:56;;;;;;;1.10;1.10;;;10.40;99.90;;;;;;4989891;28;20049;-84
2023/09/14 02:02:24;;;;;;;0.98;0.98;;;10.40;99.90;;;;;;4989372;28;20125;-83
2023/09/14 02:04:49;;;;;;;1.00;1.00;;;10.30;99.90;;;;;;4986522;28;20398;-84
2023/09/14 02:07:15;;;;;;;1.08;1.08;;;10.30;99.90;;;;;;4988781;28;20045;-83
2023/09/14 02:09:41;;;;;;;1.00;1.00;;;10.20;99.90;;;;;;4990545;28;20054;-83
2023/09/14 02:12:06;;;;;;;1.00;1.00;;;10.20;99.90;;;;;;4988486;28;20049;-83
2023/09/14 02:14:32;;;;;;;1.20;1.20;;;10.20;99.90;;;;;;4989692;28;20037;-83
2023/09/14 02:16:58;;;;;;;1.00;1.00;;;10.10;99.90;;;;;;4986084;28;20073;-83
2023/09/14 02:19:23;;;;;;;1.13;1.13;;;10.00;99.90;;;;;;4987793;28;20050;-83
2023/09/14 02:21:49;;;;;;;1.13;1.13;;;10.20;99.90;;;;;;4988463;28;20046;-83
2023/09/14 02:24:14;;;;;;;1.10;1.10;;;10.20;99.90;;;;;;4990020;28;20057;-83
2023/09/14 02:26:40;;;;;;;1.10;1.10;;;10.20;99.90;;;;;;4988626;28;20056;-84
2023/09/14 02:29:06;;;;;;;1.05;1.05;;;10.20;99.90;;;;;;4986799;28;20053;-83
2023/09/14 02:31:31;;;;;;;1.00;1.00;;;10.20;99.90;;;;;;4986732;28;20058;-83
2023/09/14 02:33:57;;;;;;;1.00;1.00;;;10.20;99.90;;;;;;4988345;28;20064;-84
2023/09/14 02:36:25;;;;;;;1.00;1.00;;;10.30;99.90;;;;;;4986519;28;20054;-84
2023/09/14 02:38:50;;;;;;;0.90;0.90;;;10.20;99.90;;;;;;4998197;28;20576;-83
2023/09/14 02:41:17;;;;;;;0.95;0.95;;;10.20;99.90;;;;;;4996016;28;20049;-83
2023/09/14 02:43:43;;;;;;;0.90;0.90;;;10.10;99.90;;;;;;4982538;28;20039;-83
2023/09/14 02:46:09;;;;;;;0.95;0.95;;;10.00;99.90;;;;;;4979609;28;20044;-83
2023/09/14 02:48:34;;;;;;;0.90;0.90;;;10.10;99.90;;;;;;4980355;28;20047;-83
2023/09/14 02:51:00;;;;;;;1.10;1.10;;;10.00;99.90;;;;;;4979386;28;20057;-83
2023/09/14 02:53:26;;;;;;;0.90;0.90;;;10.00;99.90;;;;;;4974949;28;20077;-83
2023/09/14 02:55:52;;;;;;;0.90;0.90;;;9.80;99.90;;;;;;4982305;28;20165;-83
2023/09/14 02:58:18;;;;;;;0.82;0.82;;;9.80;99.90;;;;;;4981364;28;20190;-83
2023/09/14 03:00:43;;;;;;;0.80;0.80;;;9.80;99.90;;;;;;4987147;28;20065;-83
2023/09/14 03:03:09;;;;;;;0.95;0.95;;;9.80;99.90;;;;;;4961699;28;20042;-83
2023/09/14 03:05:35;;;;;;;0.90;0.90;;;9.70;99.90;;;;;;4981930;28;20161;-84
2023/09/14 03:08:01;;;;;;;0.80;0.80;;;9.80;99.90;;;;;;4977635;28;20534;-83
2023/09/14 03:10:27;;;;;;;0.80;0.80;;;10.00;99.90;;;;;;4981239;28;20050;-83
2023/09/14 03:12:52;;;;;;;0.80;0.80;;;10.10;99.90;;;;;;4984827;28;20050;-83
2023/09/14 03:15:18;;;;;;;0.80;0.80;;;9.90;99.90;;;;;;4980567;28;20046;-83
2023/09/14 03:17:43;;;;;;;0.80;0.80;;;9.90;99.90;;;;;;4987580;28;20046;-83
2023/09/14 03:20:10;;;;;;;0.80;0.80;;;10.00;99.90;;;;;;4984786;28;20156;-83
2023/09/14 03:22:36;;;;;;;0.80;0.80;;;10.00;99.90;;;;;;4984085;28;20050;-83
2023/09/14 03:25:02;;;;;;;0.80;0.80;;;9.90;99.90;;;;;;4986078;28;20103;-84
2023/09/14 03:27:28;;;;;;;0.80;0.80;;;10.00;99.90;;;;;;4969573;28;20046;-84
2023/09/14 03:29:53;;;;;;;0.80;0.80;;;10.00;99.90;;;;;;5006544;28;20489;-84
2023/09/14 03:32:19;;;;;;;0.80;0.80;;;9.90;99.90;;;;;;4979109;28;20464;-84
2023/09/14 03:34:45;;;;;;;0.82;0.82;;;10.00;99.90;;;;;;4983729;28;20629;-83
2023/09/14 03:37:10;;;;;;;0.90;0.90;;;10.20;99.90;;;;;;4989320;28;20049;-83
2023/09/14 03:39:36;;;;;;;0.80;0.80;;;10.10;99.90;;;;;;4986603;28;20141;-83
2023/09/14 03:42:02;;;;;;;0.80;0.80;;;10.10;99.90;;;;;;4989243;28;20049;-83
2023/09/14 03:44:27;;;;;;;0.80;0.80;;;10.10;99.90;;;;;;4985128;28;20170;-84
2023/09/14 03:46:53;;;;;;;0.80;0.80;;;10.00;99.90;;;;;;4983581;28;20120;-83
2023/09/14 03:49:19;;;;;;;0.75;0.75;;;10.10;99.90;;;;;;5002830;28;20050;-83
2023/09/14 03:51:44;;;;;;;0.80;0.80;;;10.00;99.90;;;;;;4970350;28;20046;-84
2023/09/14 03:54:10;;;;;;;0.70;0.70;;;9.90;99.90;;;;;;4983931;28;20100;-83
2023/09/14 03:56:37;;;;;;;0.70;0.70;;;10.00;99.90;;;;;;4986464;28;20103;-83
2023/09/14 03:59:03;;;;;;;0.70;0.70;;;9.90;99.90;;;;;;4986101;28;20443;-83
2023/09/14 04:01:29;;;;;;;0.70;0.70;;;9.90;99.90;;;;;;4986113;28;20059;-84
2023/09/14 04:03:54;;;;;;;0.80;0.80;;;9.80;99.90;;;;;;4970497;28;20042;-83
2023/09/14 04:06:20;;;;;;;0.70;0.70;;;9.90;99.90;;;;;;4985906;28;20064;-84
2023/09/14 04:08:45;;;;;;;0.70;0.70;;;9.80;99.90;;;;;;4985109;28;20395;-83
2023/09/14 04:11:11;;;;;;;0.70;0.70;;;9.80;99.90;;;;;;4985316;28;20514;-84
2023/09/14 04:13:37;;;;;;;0.70;0.70;;;9.90;99.90;;;;;;4968354;28;20049;-83
2023/09/14 04:16:04;;;;;;;0.70;0.70;;;9.70;99.90;;;;;;4986005;28;20073;-83
2023/09/14 04:18:38;;;;;;;0.70;0.70;;;9.80;99.90;;;;;;4985068;28;20185;-83
2023/09/14 04:21:05;;;;;;;0.80;0.80;;;9.70;99.90;;;;;;4975849;28;20058;-83
2023/09/14 04:23:30;;;;;;;0.80;0.80;;;9.70;99.90;;;;;;4986096;28;20719;-83
2023/09/14 04:25:56;;;;;;;0.80;0.80;;;9.60;99.90;;;;;;4982144;28;20053;-84
2023/09/14 04:28:22;;;;;;;0.70;0.70;;;9.70;99.90;;;;;;4978970;28;20262;-84
2023/09/14 04:30:59;;;;;;;0.80;0.80;;;9.60;99.90;;;;;;4982897;28;20116;-83
2023/09/14 04:33:25;;;;;;;0.80;0.80;;;9.70;99.90;;;;;;4981954;28;20192;-84
2023/09/14 04:35:58;;;;;;;0.80;0.80;;;9.70;99.90;;;;;;4985664;28;20057;-82
2023/09/14 04:38:23;;;;;;;0.80;0.80;;;9.80;99.90;;;;;;4989378;28;20047;-83
2023/09/14 04:40:49;;;;;;;0.70;0.70;;;9.80;99.90;;;;;;4989274;28;20274;-83
2023/09/14 04:43:15;;;;;;;0.80;0.80;;;9.80;99.90;;;;;;4991354;28;20391;-84
2023/09/14 04:45:41;;;;;;;0.80;0.80;;;9.80;99.90;;;;;;4989461;28;20145;-83
2023/09/14 04:48:07;;;;;;;0.80;0.80;;;9.80;99.90;;;;;;4988299;28;20045;-83
2023/09/14 04:50:33;;;;;;;0.80;0.80;;;9.80;99.90;;;;;;4990235;28;20458;-83
2023/09/14 04:52:59;;;;;;;0.80;0.80;;;9.60;99.90;;;;;;4973821;28;20057;-83
2023/09/14 04:55:25;;;;;;;0.80;0.80;;;9.70;99.90;;;;;;4983463;28;20054;-83
2023/09/14 04:57:51;;;;;;;0.80;0.80;;;9.70;99.90;;;;;;4969241;28;20061;-83
2023/09/14 05:00:17;;;;;;;0.80;0.80;;;9.60;99.90;;;;;;4993368;28;20077;-83
2023/09/14 05:02:42;;;;;;;0.70;0.70;;;9.80;99.90;;;;;;4990473;28;20164;-83
2023/09/14 05:05:09;;;;;;;0.70;0.70;;;9.70;99.90;;;;;;4988853;28;20052;-84
2023/09/14 05:07:35;;;;;;;0.77;0.77;;;9.60;99.90;;;;;;4987188;28;20038;-83
2023/09/14 05:10:01;;;;;;;0.70;0.70;;;9.50;99.90;;;;;;4989593;28;20124;-84
2023/09/14 05:12:28;;;;;;;0.70;0.70;;;9.50;99.90;;;;;;4988633;28;20488;-83
2023/09/14 05:14:54;;;;;;;0.80;0.80;;;9.60;99.90;;;;;;4987242;28;20061;-84
2023/09/14 05:17:19;;;;;;;0.80;0.80;;;9.70;99.90;;;;;;4987430;28;20042;-83
2023/09/14 05:19:45;;;;;;;0.80;0.80;;;9.60;99.90;;;;;;4981213;28;20517;-84
2023/09/14 05:22:11;;;;;;;0.80;0.80;;;9.80;99.90;;;;;;4988794;28;20050;-84
2023/09/14 05:24:39;;;;;;;0.70;0.70;;;9.80;99.90;;;;;;4989169;28;20054;-84
2023/09/14 05:27:04;;;;;;;0.80;0.80;;;9.80;99.90;;;;;;4973787;28;20144;-84
2023/09/14 05:29:30;;;;;;;0.80;0.80;;;9.90;99.90;;;;;;4973197;28;20052;-84
2023/09/14 05:31:56;;;;;;;0.70;0.70;;;9.70;99.90;;;;;;4999444;28;20042;-84
2023/09/14 05:34:22;;;;;;;0.80;0.80;;;10.00;99.90;;;;;;4972174;28;20078;-83
2023/09/14 05:36:49;;;;;;;0.80;0.80;;;9.90;99.90;;;;;;4972545;28;20073;-84
2023/09/14 05:39:14;;;;;;;0.80;0.80;;;10.00;99.90;;;;;;4991331;28;20046;-84
2023/09/14 05:41:40;;;;;;;0.90;0.90;;;10.10;99.90;;;;;;4980009;28;20042;-83
2023/09/14 05:44:10;;;;;;;0.90;0.90;;;10.10;99.90;;;;;;4981228;28;20041;-84
2023/09/14 05:46:39;;;;;;;1.00;1.00;;;10.30;99.90;;;;;;4987850;28;20489;-84
2023/09/14 05:49:06;;;;;;;0.90;0.90;;;10.30;99.90;;;;;;4987419;28;20058;-84
2023/09/14 05:51:31;;;;;;;0.95;0.95;;;10.30;99.90;;;;;;4973043;28;20046;-84
2023/09/14 05:53:57;;;;;;;1.00;1.00;;;10.40;99.90;;;;;;4988576;28;20042;-84
2023/09/14 05:56:23;;;;;;;1.05;1.05;;;10.60;99.90;;;;;;4973169;28;20155;-83
2023/09/14 05:58:49;;;;;;;1.00;1.00;;;10.70;99.90;;;;;;4992161;28;20054;-83
2023/09/14 06:01:14;;;;;;;1.10;1.10;;;10.70;99.90;;;;;;4988189;28;20057;-84
2023/09/14 06:03:40;;;;;;;1.10;1.10;;;10.80;99.90;;;;;;4986589;28;20046;-84
2023/09/14 06:06:06;;;;;;;0.90;0.90;;;11.00;99.90;;;;;;4984235;28;20085;-84
2023/09/14 06:08:32;;;;;;;0.90;0.90;;;11.20;99.90;;;;;;4985778;28;20154;-85
2023/09/14 06:10:58;;;;;;;0.95;0.95;;;11.10;99.90;;;;;;4981997;28;20190;-83
2023/09/14 06:13:24;;;;;;;0.98;0.98;;;11.30;99.90;;;;;;4984869;28;20111;-83
2023/09/14 06:15:50;;;;;;;1.00;1.00;;;11.50;99.90;;;;;;4985223;28;20057;-84
2023/09/14 06:18:16;;;;;;;1.00;1.00;;;11.70;99.90;;;;;;4985518;28;20057;-84
2023/09/14 06:20:42;;;;;;;1.00;1.00;;;11.70;99.90;;;;;;4985071;28;20046;-83
2023/09/14 06:23:08;;;;;;;1.00;1.00;;;11.80;99.90;;;;;;4984814;28;20052;-83
2023/09/14 06:25:33;;;;;;;0.80;0.80;;;11.80;99.90;;;;;;4986678;28;20104;-84
2023/09/14 06:27:59;;;;;;;0.90;0.90;;;11.80;99.90;;;;;;5004713;28;20046;-84
2023/09/14 06:30:25;;;;;;;0.90;0.90;;;11.90;99.90;;;;;;4990198;28;20042;-82
2023/09/14 06:32:51;;;;;;;0.90;0.90;;;12.00;99.90;;;;;;4984104;28;20050;-85
2023/09/14 06:35:17;;;;;;;0.82;0.82;;;12.20;99.90;;;;;;4967311;28;20049;-85
2023/09/14 06:37:43;;;;;;;0.80;0.80;;;12.30;99.90;;;;;;4982547;28;20415;-87
2023/09/14 06:40:10;;;;;;;0.90;0.90;;;12.50;99.90;;;;;;4972690;28;20073;-86
2023/09/14 06:42:36;;;;;;;0.80;0.80;;;12.70;99.90;;;;;;4988108;28;20049;-84
2023/09/14 06:45:02;;;;;;;1.00;1.00;;;12.80;99.90;;;;;;4999724;28;20050;-85
2023/09/14 06:47:27;;;;;;;1.02;1.02;;;13.00;99.90;;;;;;4994145;28;21344;-85
2023/09/14 06:49:53;;;;;;;0.95;0.95;;;13.20;99.90;;;;;;4985105;28;20057;-83
2023/09/14 06:52:19;;;;;;;0.98;0.98;;;13.30;99.90;;;;;;4988487;28;20037;-84
2023/09/14 06:54:46;;;;;;;0.93;0.93;;;13.30;99.90;;;;;;4969697;28;20112;-84
2023/09/14 06:57:12;;;;;;;1.00;1.00;;;13.50;99.90;;;;;;4987773;28;20133;-83
2023/09/14 06:59:37;;;;;;;0.95;0.95;;;13.60;99.90;;;;;;4987773;28;20124;-84
2023/09/14 07:02:03;;;;;;;0.93;0.93;;;13.80;99.90;;;;;;4986306;28;20053;-85
2023/09/14 07:04:29;;;;;;;1.05;1.05;;;13.90;99.90;;;;;;4972207;28;20129;-84
2023/09/14 07:06:55;;;;;;;1.08;1.08;;;14.00;99.90;;;;;;4986864;28;20189;-84
2023/09/14 07:09:21;;;;;;;1.13;1.13;;;14.20;99.90;;;;;;4985362;28;20045;-86
2023/09/14 07:11:46;;;;;;;1.08;1.08;;;14.30;99.90;;;;;;4987118;28;20060;-85
2023/09/14 07:14:12;;;;;;;1.20;1.20;;;14.40;99.90;;;;;;4985416;28;20073;-85
2023/09/14 07:16:38;;;;;;;1.35;1.33;;;14.60;99.90;;;;;;4970005;28;20140;-85
2023/09/14 07:19:03;;;;;;;1.60;1.50;;;14.70;99.90;;;;;;4969825;28;20051;-84
2023/09/14 07:21:32;;;;;;;1.58;1.48;;;14.90;99.90;;;;;;4986468;28;20045;-85
2023/09/14 07:23:59;;;;;;;1.65;1.55;;;15.10;99.90;;;;;;4967003;28;20045;-85
2023/09/14 07:26:26;;;;;;;1.45;1.38;;;15.20;99.90;;;;;;4968486;28;20504;-85
2023/09/14 07:28:52;;;;;;;1.50;1.40;;;15.30;99.90;;;;;;4973154;28;20077;-86
2023/09/14 07:31:17;;;;;;;1.50;1.40;;;15.30;99.90;;;;;;4987072;28;20084;-86
2023/09/14 07:33:46;;;;;;;1.20;1.20;;;15.60;99.90;;;;;;4987243;28;20038;-85
2023/09/14 07:36:12;;;;;;;1.15;1.15;;;15.80;99.90;;;;;;5003702;28;20084;-85
2023/09/14 07:38:37;;;;;;;1.13;1.13;;;15.90;99.90;;;;;;4987663;28;20077;-86
2023/09/14 07:41:03;;;;;;;1.00;1.00;;;16.10;99.90;;;;;;4984102;28;20038;-86
2023/09/14 07:43:29;;;;;;;0.90;0.90;;;16.20;99.90;;;;;;4989107;28;20042;-86
2023/09/14 07:45:58;;;;;;;0.98;0.98;;;16.30;99.90;;;;;;4985270;28;20129;-86
2023/09/14 07:48:24;;;;;;;0.90;0.90;;;16.40;99.90;;;;;;4986001;28;20041;-90
2023/09/14 07:50:50;;;;;;;0.82;0.82;;;16.60;99.90;;;;;;4989117;28;20057;-85
2023/09/14 07:53:16;;;;;;;0.80;0.80;;;16.80;99.90;;;;;;4987159;28;20072;-87
2023/09/14 07:55:42;;;;;;;0.80;0.80;;;16.70;99.90;;;;;;4969177;28;20049;-86
2023/09/14 07:58:08;;;;;;;0.80;0.80;;;16.80;99.90;;;;;;4969139;28;20050;-86
2023/09/14 08:00:34;;;;;;;0.73;0.73;;;16.90;99.90;;;;;;4987199;28;20058;-89
2023/09/14 08:03:00;;;;;;;0.80;0.80;;;16.90;99.90;;;;;;4967066;28;20389;-85
2023/09/14 08:05:25;;;;;;;0.80;0.80;;;17.20;99.90;;;;;;4985786;28;20042;-87
2023/09/14 08:07:53;;;;;;;0.70;0.70;;;17.30;99.90;;;;;;4982056;28;20048;-83
2023/09/14 08:10:18;;;;;;;0.70;0.70;;;17.50;99.90;;;;;;4985858;28;20057;-84
2023/09/14 08:12:44;;;;;;;0.60;0.60;;;17.50;99.90;;;;;;4968358;28;20046;-89
2023/09/14 08:15:10;;;;;;;0.70;0.70;;;17.60;99.90;;;;;;4984875;28;20038;-84
2023/09/14 08:17:36;;;;;;;0.80;0.80;;;17.70;99.90;;;;;;4987883;28;20045;-87
2023/09/14 08:20:03;;;;;;;0.70;0.70;;;17.80;99.90;;;;;;4988771;28;20429;-87
2023/09/14 08:22:29;;;;;;;0.80;0.80;;;17.90;99.90;;;;;;4988345;28;20049;-88
2023/09/14 08:24:58;;;;;;;0.80;0.80;;;17.90;99.90;;;;;;4988808;28;20108;-87
2023/09/14 08:27:24;;;;;;;0.70;0.70;;;17.90;99.90;;;;;;4989587;28;20050;-86
2023/09/14 08:29:50;;;;;;;0.60;0.60;;;18.10;99.90;;;;;;4986166;28;20053;-87
2023/09/14 08:32:16;;;;;;;0.60;0.60;;;18.20;99.90;;;;;;4972042;28;20427;-87
2023/09/14 08:34:41;;;;;;;0.60;0.60;;;18.40;99.90;;;;;;4987152;28;20125;-87
2023/09/14 08:37:09;;;;;;;0.60;0.60;;;18.50;99.90;;;;;;4986033;28;20050;-83
2023/09/14 08:39:36;;;;;;;0.70;0.70;;;18.50;99.90;;;;;;4976735;28;20038;-91
2023/09/14 08:42:01;;;;;;;0.68;0.68;;;18.40;99.90;;;;;;4979214;28;20054;-92
2023/09/14 08:44:36;;;;;;;0.60;0.60;;;18.60;99.90;;;;;;4976425;28;20045;-91
2023/09/14 08:47:17;;;;;;;0.68;0.68;;;18.80;99.90;;;;;;5005127;28;20049;-94
2023/09/14 08:49:45;;;;;;;0.70;0.70;;;18.80;99.90;;;;;;4981962;28;20050;-90
2023/09/14 08:52:14;;;;;;;0.63;0.63;;;18.80;99.90;;;;;;4996614;28;20077;-92
2023/09/14 08:54:41;;;;;;;0.77;0.77;;;19.00;99.90;;;;;;4991375;28;20038;-94
2023/09/14 08:57:09;;;;;;;0.68;0.68;;;18.60;99.90;;;;;;4982456;28;20479;-90
2023/09/14 08:59:35;;;;;;;0.60;0.60;;;18.90;99.90;;;;;;4980851;28;20104;-91
2023/09/14 09:02:02;;;;;;;0.60;0.60;;;19.00;99.90;;;;;;4988367;28;20053;-88
2023/09/14 09:04:28;;;;;;;0.60;0.60;;;19.20;99.90;;;;;;4990166;28;20056;-94
2023/09/14 09:06:54;;;;;;;0.70;0.70;;;19.30;99.90;;;;;;4973763;28;20145;-89
2023/09/14 09:09:23;;;;;;;0.60;0.60;;;19.40;99.90;;;;;;4973430;28;20042;-90
2023/09/14 09:11:49;;;;;;;0.70;0.70;;;19.50;99.90;;;;;;4974546;28;20061;-90
2023/09/14 09:14:14;;;;;;;0.60;0.60;;;19.30;99.90;;;;;;4992704;28;20038;-90
2023/09/14 09:16:40;;;;;;;0.70;0.70;;;19.50;99.90;;;;;;4977774;28;20089;-95
2023/09/14 09:19:07;;;;;;;0.70;0.70;;;19.60;99.90;;;;;;4993105;28;20046;-92
2023/09/14 09:21:39;;;;;;;0.70;0.70;;;19.50;99.90;;;;;;4991584;28;20045;-95
2023/09/14 09:24:06;;;;;;;0.70;0.70;;;19.70;99.90;;;;;;4978707;28;20061;-91
2023/09/14 09:26:40;;;;;;;0.70;0.70;;;19.60;99.90;;;;;;4992313;28;20061;-95
2023/09/14 09:29:34;;;;;;;0.80;0.80;;;19.60;99.90;;;;;;4980064;28;20472;-93
2023/09/14 09:35:22;;;;;;;0.70;0.70;;;19.60;99.90;;;;;;4991907;28;20073;-90
2023/09/14 09:37:55;;;;;;;0.70;0.70;;;19.60;99.90;;;;;;4975853;28;20046;-95
2023/09/14 09:40:30;;;;;;;0.80;0.80;;;19.60;99.90;;;;;;4970609;28;20042;-88
2023/09/14 09:43:07;;;;;;;0.80;0.80;;;20.00;99.90;;;;;;4986961;28;20136;-94
2023/09/14 09:45:54;;;;;;;0.77;0.77;;;20.10;99.90;;;;;;4982364;28;20129;-89
2023/09/14 09:48:21;;;;;;;0.80;0.80;;;20.00;99.90;;;;;;4996884;28;20124;-94
2023/09/14 09:50:46;;;;;;;0.85;0.85;;;20.10;99.90;;;;;;4985528;28;20112;-93
2023/09/14 09:53:16;;;;;;;0.80;0.80;;;20.40;99.90;;;;;;4980278;28;20037;-91
2023/09/14 09:55:46;;;;;;;0.80;0.80;;;20.30;99.90;;;;;;4997559;28;20034;-91
2023/09/14 09:58:13;;;;;;;0.70;0.70;;;20.10;99.90;;;;;;4992440;28;20121;-93
2023/09/14 10:01:19;;;;;;;0.70;0.70;;;20.30;99.90;;;;;;4982679;28;20081;-96
2023/09/14 10:03:47;;;;;;;0.70;0.70;;;20.30;99.90;;;;;;4980617;28;20487;-94
2023/09/14 10:06:13;;;;;;;0.68;0.68;;;20.50;99.90;;;;;;4978498;28;20045;-95
2023/09/14 10:08:52;;;;;;;0.60;0.60;;;20.70;99.90;;;;;;4975837;28;20046;-96
2023/09/14 10:11:18;;;;;;;0.60;0.60;;;20.80;99.90;;;;;;4978961;28;20041;-92
2023/09/14 10:14:04;;;;;;;0.50;0.50;;;20.70;99.90;;;;;;4994505;28;20097;-96
2023/09/14 10:16:41;;;;;;;0.50;0.50;;;20.70;99.90;;;;;;4976762;28;20084;-93
2023/09/14 10:19:08;;;;;;;0.70;0.70;;;20.60;99.90;;;;;;4981866;28;20491;-93
2023/09/14 10:21:36;;;;;;;0.60;0.60;;;20.60;99.90;;;;;;4987168;28;20668;-90
2023/09/14 10:24:06;;;;;;;0.52;0.52;;;20.50;99.90;;;;;;4978807;28;20046;-95
2023/09/14 10:26:38;;;;;;;0.60;0.60;;;20.40;99.90;;;;;;4987063;28;20543;-95
2023/09/14 10:32:47;;;;;;;0.60;0.60;;;19.70;99.90;;;;;;4984472;28;20039;-95
2023/09/14 10:35:17;;;;;;;0.70;0.70;;;18.90;99.90;;;;;;4983266;28;20038;-91
2023/09/14 10:37:54;;;;;;;0.65;0.65;;;19.00;99.90;;;;;;4975590;28;20045;-96
2023/09/14 10:40:21;;;;;;;0.70;0.70;;;19.00;99.90;;;;;;4976462;28;20129;-93
2023/09/14 10:42:47;;;;;;;0.60;0.60;;;19.70;99.90;;;;;;4984897;28;20078;-93
2023/09/14 10:45:16;;;;;;;0.70;0.70;;;20.10;99.90;;;;;;4978928;28;20092;-93
2023/09/14 10:48:02;;;;;;;0.70;0.70;;;19.70;99.90;;;;;;4984355;28;20046;-95
2023/09/14 10:50:44;;;;;;;0.70;0.70;;;19.90;99.90;;;;;;4981715;28;20053;-94
2023/09/14 10:56:33;;;;;;;0.70;0.70;;;20.70;99.90;;;;;;4968749;28;20046;-95
2023/09/14 10:59:08;;;;;;;0.70;0.70;;;20.10;99.90;;;;;;4973721;28;20053;-95
2023/09/14 11:01:47;;;;;;;0.70;0.70;;;19.90;99.90;;;;;;4988902;28;20042;-88
2023/09/14 11:04:21;;;;;;;0.60;0.60;;;20.30;99.90;;;;;;4996711;28;20046;-94
2023/09/14 11:06:52;;;;;;;0.60;0.60;;;20.90;99.90;;;;;;4974677;28;20058;-95
2023/09/14 11:20:19;;;;;;;0.60;0.60;;;21.20;99.90;;;;;;4940476;29;20116;-91
2023/09/14 11:22:48;;;;;;;0.60;0.60;;;22.00;99.90;;;;;;4922461;29;20044;-88
2023/09/14 11:26:02;;;;;;;0.60;0.60;;;22.40;99.90;;;;;;4946806;28;20053;-93
2023/09/14 11:28:49;;;;;;;0.60;0.60;;;21.80;99.90;;;;;;4982950;28;20042;-96
2023/09/14 11:31:15;;;;;;;0.57;0.57;;;21.30;99.90;;;;;;4981909;28;20136;-90
2023/09/14 11:33:42;;;;;;;0.50;0.50;;;21.00;99.90;;;;;;4976382;28;20047;-94
2023/09/14 11:36:09;;;;;;;0.50;0.50;;;20.90;99.90;;;;;;4979240;28;20041;-91
2023/09/14 11:39:29;;;;;;;0.50;0.50;;;20.70;99.90;;;;;;4999953;28;20120;-96
2023/09/14 11:42:01;;;;;;;0.50;0.50;;;20.70;99.90;;;;;;4932584;28;20055;-96
2023/09/14 11:45:08;;;;;;;0.50;0.50;;;20.60;99.90;;;;;;4982063;28;20551;-95
2023/09/14 11:48:29;;;;;;;0.50;0.50;;;20.50;99.90;;;;;;4970914;28;20038;-95
2023/09/14 11:51:03;;;;;;;0.60;0.60;;;20.50;99.90;;;;;;4940652;28;20161;-95
2023/09/14 11:57:07;;;;;;;0.50;0.50;;;20.20;99.90;;;;;;4953393;28;20881;-93
2023/09/14 11:59:33;;;;;;;0.50;0.50;;;20.90;99.90;;;;;;4923714;29;20043;-94
2023/09/14 12:02:01;;;;;;;0.50;0.50;;;21.90;99.90;;;;;;4919973;29;20425;-93
2023/09/14 12:05:18;;;;;;;0.50;0.50;;;22.30;99.90;;;;;;4923219;29;20043;-94
2023/09/14 12:07:44;;;;;;;0.50;0.50;;;21.90;99.90;;;;;;4941626;28;20061;-89
2023/09/14 12:10:20;;;;;;;0.50;0.50;;;22.80;99.90;;;;;;4989438;28;20129;-94
2023/09/14 12:12:47;;;;;;;0.60;0.60;;;22.40;99.90;;;;;;4966170;28;20053;-91
2023/09/14 12:15:30;;;;;;;;;;;;;;;;;;;;;
2023/09/14 12:18:05;;;;;;;0.70;0.70;;;23.10;99.90;;;;;;4992607;28;20053;-94
2023/09/14 12:20:39;;;;;;;0.60;0.60;;;23.30;99.90;;;;;;4974284;28;20077;-95
2023/09/14 12:23:07;;;;;;;0.30;0.30;;;23.50;99.90;;;;;;4978126;28;20042;-92
2023/09/14 12:25:59;;;;;;;0.60;0.60;;;23.70;99.90;;;;;;4978353;28;20038;-94
2023/09/14 12:29:25;;;;;;;0.60;0.60;;;23.70;99.90;;;;;;4976365;28;20169;-96
2023/09/14 12:32:10;;;;;;;0.60;0.60;;;23.80;99.90;;;;;;4917149;28;20046;-94
2023/09/14 12:34:57;;;;;;;0.30;0.30;;;23.60;99.90;;;;;;4925396;29;20055;-96
2023/09/14 12:37:49;;;;;;;0.50;0.50;;;23.40;99.90;;;;;;4929651;28;20056;-96
2023/09/14 12:40:18;;;;;;;0.30;0.30;;;23.00;99.90;;;;;;4964261;28;20064;-91
2023/09/14 12:42:44;;;;;;;0.30;0.30;;;22.90;99.90;;;;;;4967975;28;20503;-92
2023/09/14 12:45:17;;;;;;;0.40;0.40;;;22.90;99.90;;;;;;4991594;28;20048;-91
2023/09/14 12:47:45;;;;;;;0.70;0.70;;;23.00;99.90;;;;;;4975712;28;20359;-90
2023/09/14 12:50:42;;;;;;;0.30;0.30;;;23.10;99.90;;;;;;4993840;28;20048;-95
2023/09/14 12:53:09;;;;;;;0.30;0.30;;;22.90;99.90;;;;;;4973616;28;20038;-92
2023/09/14 12:55:43;;;;;;;0.77;0.77;;;22.70;99.90;;;;;;4966639;28;20037;-89
2023/09/14 12:58:08;;;;;;;0.30;0.30;;;22.60;99.90;;;;;;4982897;28;20123;-90
2023/09/14 13:00:34;;;;;;;0.70;0.70;;;22.40;99.90;;;;;;4972815;28;20038;-90
2023/09/14 13:03:00;;;;;;;0.40;0.40;;;22.80;99.90;;;;;;4976252;28;20483;-91
2023/09/14 13:05:32;;;;;;;0.30;0.30;;;23.40;99.90;;;;;;4976787;28;20096;-91
2023/09/14 13:08:01;;;;;;;0.40;0.40;;;23.40;99.90;;;;;;4980243;28;20124;-94
2023/09/14 13:10:29;;;;;;;0.30;0.30;;;23.50;99.90;;;;;;4972859;28;20069;-91
2023/09/14 13:13:01;;;;;;;0.70;0.70;;;23.80;99.90;;;;;;4980387;28;20042;-92
2023/09/14 13:15:28;;;;;;;0.30;0.30;;;23.70;99.90;;;;;;4992524;28;20483;-88
2023/09/14 13:18:16;;;;;;;0.30;0.30;;;23.20;99.90;;;;;;4993093;28;20050;-89
2023/09/14 13:20:50;;;;;;;0.40;0.40;;;22.70;99.90;;;;;;4991568;28;20048;-91
2023/09/14 13:23:16;;;;;;;;;;;21.90;99.90;;;;;;4994931;28;20096;-88
2023/09/14 13:25:41;;;;;;;1.10;1.10;;;22.50;99.90;;;;;;4995340;28;19933;-89